KMVN/MVN METAR and TAF weather

Enter ICAO airport designator
Station Type Date Time Source
KMVN METAR 2020/08/11 01:32 UTC NOAA

KMVN 110132Z AUTO 02008KT 10SM -TSRA FEW009 BKN043 OVC110 21/19 A3003 RMK AO2 LTG DSNT ALQDS TSE27B32 PNO $


Station Type Date Time Source
KMVN Decoded METAR 2020/08/11 01:32 UTC NOAA

Mount Vernon, Mount Vernon Airport, IL, United States (KMVN) 38-19N 088-52W
Aug 10, 2020 - 09:32 PM EDT / 2020.08.11 0132 UTC
Wind: from the NNE (020 degrees) at 9 MPH (8 KT):0
Visibility: 10 mile(s):0
Sky conditions: overcast
Weather: light rain with thunder; Lightning observed
Temperature: 69 F (21 C)
Dew Point: 66 F (19 C)
Relative Humidity: 88%
Pressure (altimeter): 30.03 in. Hg (1016 hPa)
ob: KMVN 110132Z AUTO 02008KT 10SM -TSRA FEW009 BKN043 OVC110 21/19 A3003 RMK AO2 LTG DSNT ALQDS TSE27B32 PNO
cycle: 1

Station Type Date Time Source
KMVN TAF 2020/08/10 21:33 UTC NOAA

TAF
AMD KMVN 102032Z 1021/1118 23007KT P6SM FEW050 SCT100
FM110100 VRB04KT P6SM -SHRA VCTS BKN050CB
TEMPO 1101/1103 VRB15G30KT 2SM +TSRA BR BKN025CB
FM110500 VRB03KT P6SM VCSH BKN100
FM110900 VRB03KT P6SM BKN100

Example: see airport list